createdAt,value
2023-02-24T00:00:29.470Z,20.30
2023-02-24T00:01:25.141Z,21.23
2023-02-24T00:02:15.249Z,20.40
2023-02-24T00:03:06.682Z,21.75
2023-02-24T00:03:58.094Z,21.83
2023-02-24T00:04:45.841Z,23.77
2023-02-24T00:05:39.375Z,23.48
2023-02-24T00:06:36.229Z,23.12
2023-02-24T00:07:23.241Z,27.23
2023-02-24T00:08:10.415Z,25.55
2023-02-24T00:08:57.292Z,23.98
2023-02-24T00:09:49.190Z,22.45
2023-02-24T00:10:37.810Z,24.05
2023-02-24T00:11:24.762Z,25.10
2023-02-24T00:12:14.367Z,27.52
2023-02-24T00:13:01.281Z,27.17
2023-02-24T00:13:48.477Z,25.05
2023-02-24T00:14:41.486Z,26.40
2023-02-24T00:15:28.443Z,24.95
2023-02-24T00:16:19.995Z,23.30
2023-02-24T00:17:10.645Z,25.55
2023-02-24T00:18:46.143Z,24.42
2023-02-24T00:19:33.053Z,27.70
2023-02-24T00:20:20.110Z,24.92
2023-02-24T00:21:15.678Z,26.40
2023-02-24T00:22:04.101Z,26.02
2023-02-24T00:22:51.141Z,24.63
2023-02-24T00:23:38.565Z,29.65
2023-02-24T00:24:25.821Z,25.17
2023-02-24T00:25:12.852Z,26.55
2023-02-24T00:26:03.043Z,22.73
2023-02-24T00:26:59.583Z,29.02
2023-02-24T00:27:46.549Z,24.58
2023-02-24T00:28:36.048Z,26.58
2023-02-24T00:29:24.389Z,26.17
2023-02-24T00:30:12.246Z,23.85
2023-02-24T00:31:06.096Z,25.92
2023-02-24T00:32:01.440Z,25.75
2023-02-24T00:32:48.723Z,26.48
2023-02-24T00:33:35.706Z,24.05
2023-02-24T00:34:22.844Z,24.37
2023-02-24T00:35:09.974Z,29.60
2023-02-24T00:36:05.157Z,30.08
2023-02-24T00:36:52.036Z,26.40
2023-02-24T00:37:38.908Z,27.67
2023-02-24T00:38:25.916Z,28.42
2023-02-24T00:39:13.889Z,26.15
2023-02-24T00:40:00.817Z,26.80
2023-02-24T00:40:48.551Z,24.73
2023-02-24T00:41:37.440Z,26.55
2023-02-24T00:42:24.680Z,25.15
2023-02-24T00:43:12.847Z,29.33
2023-02-24T00:44:06.819Z,26.58
2023-02-24T00:44:54.321Z,25.98
2023-02-24T00:45:41.250Z,26.98
2023-02-24T00:46:31.853Z,23.98
2023-02-24T00:48:06.623Z,23.48
2023-02-24T00:48:55.490Z,26.62
2023-02-24T00:49:43.645Z,24.02
2023-02-24T00:50:31.530Z,22.90
2023-02-24T00:51:25.670Z,22.05
2023-02-24T00:52:19.517Z,27.08
2023-02-24T00:53:06.943Z,25.17
2023-02-24T00:53:57.180Z,24.17
2023-02-24T00:54:45.315Z,22.33
2023-02-24T00:55:36.560Z,22.55
2023-02-24T00:56:25.503Z,23.77
2023-02-24T00:57:12.827Z,24.02
2023-02-24T00:57:59.715Z,24.95
2023-02-24T00:58:46.591Z,24.05
2023-02-24T00:59:33.471Z,23.75
2023-02-24T01:00:20.732Z,24.37
2023-02-24T01:01:23.959Z,23.98
2023-02-24T01:02:11.661Z,26.65
2023-02-24T01:02:59.589Z,24.12
2023-02-24T01:03:49.295Z,24.75
2023-02-24T01:04:37.949Z,23.33
2023-02-24T01:05:28.150Z,23.45
2023-02-24T01:06:15.798Z,29.10
2023-02-24T01:07:02.851Z,24.42
2023-02-24T01:07:49.773Z,24.95
2023-02-24T01:08:40.366Z,26.20
2023-02-24T01:10:15.220Z,25.37
2023-02-24T01:11:21.629Z,27.87
2023-02-24T01:12:29.402Z,26.65
2023-02-24T01:13:16.358Z,25.37
2023-02-24T01:14:15.187Z,27.87
2023-02-24T01:15:03.308Z,26.20
2023-02-24T01:15:50.229Z,27.80
2023-02-24T01:16:37.277Z,24.37
2023-02-24T01:17:25.657Z,26.85
2023-02-24T01:18:12.640Z,26.37
2023-02-24T01:18:59.565Z,25.02
2023-02-24T01:19:49.587Z,25.25
2023-02-24T01:20:38.704Z,25.80
2023-02-24T01:21:25.806Z,25.12
2023-02-24T01:22:15.238Z,26.67
2023-02-24T01:23:03.644Z,26.73
2023-02-24T01:23:51.385Z,27.35
2023-02-24T01:24:41.451Z,28.38
2023-02-24T01:25:31.541Z,25.42
2023-02-24T01:26:19.447Z,24.37
2023-02-24T01:27:06.762Z,25.35
2023-02-24T01:27:54.228Z,24.87
2023-02-24T01:28:41.101Z,24.55
2023-02-24T01:29:28.201Z,27.20
2023-02-24T01:30:16.426Z,25.90
2023-02-24T01:31:05.545Z,26.08
2023-02-24T01:31:53.119Z,27.90
2023-02-24T01:32:40.901Z,30.08
2023-02-24T01:33:28.299Z,26.42
2023-02-24T01:34:15.199Z,27.65
2023-02-24T01:35:02.119Z,26.52
2023-02-24T01:35:49.017Z,28.20
2023-02-24T01:36:35.925Z,26.37
2023-02-24T01:37:22.829Z,30.15
2023-02-24T01:38:11.419Z,28.17
2023-02-24T01:38:59.752Z,25.95
2023-02-24T01:39:47.383Z,27.27
2023-02-24T01:40:34.392Z,27.13
2023-02-24T01:41:31.400Z,24.25
2023-02-24T01:42:20.336Z,24.35
2023-02-24T01:43:09.096Z,27.90
2023-02-24T01:43:58.988Z,27.50
2023-02-24T01:44:46.091Z,28.12
2023-02-24T01:45:36.965Z,26.08
2023-02-24T01:46:23.919Z,27.80
2023-02-24T01:47:11.396Z,28.42
2023-02-24T01:48:01.566Z,28.05
2023-02-24T01:48:48.514Z,27.52
2023-02-24T01:49:39.314Z,27.95
2023-02-24T01:50:27.393Z,26.23
2023-02-24T01:51:14.280Z,26.83
2023-02-24T01:52:09.068Z,30.05
2023-02-24T01:53:00.658Z,28.35
2023-02-24T01:53:48.238Z,26.83
2023-02-24T01:54:47.298Z,28.45
2023-02-24T01:55:38.952Z,30.77
2023-02-24T01:56:25.853Z,29.85
2023-02-24T01:57:16.925Z,26.85
2023-02-24T01:58:13.553Z,26.90
2023-02-24T01:59:01.946Z,26.50
2023-02-24T01:59:51.965Z,29.20
2023-02-24T02:00:45.468Z,28.42
2023-02-24T02:01:40.735Z,27.42
2023-02-24T02:02:27.937Z,29.80
2023-02-24T02:03:24.432Z,29.00
2023-02-24T02:04:44.241Z,27.37
2023-02-24T02:05:31.194Z,29.15
2023-02-24T02:06:18.221Z,27.15
2023-02-24T02:07:05.558Z,29.05
2023-02-24T02:07:53.346Z,29.30
2023-02-24T02:08:44.539Z,27.27
2023-02-24T02:09:31.973Z,27.62
2023-02-24T02:10:18.953Z,31.67
2023-02-24T02:11:09.367Z,30.35
2023-02-24T02:11:56.276Z,32.88
2023-02-24T02:12:47.193Z,31.58
2023-02-24T02:13:36.085Z,29.35
2023-02-24T02:14:26.164Z,29.90
2023-02-24T02:15:15.191Z,30.00
2023-02-24T02:16:28.094Z,33.78
2023-02-24T02:17:17.834Z,29.92
2023-02-24T02:18:33.476Z,27.87
2023-02-24T02:19:40.024Z,30.50
2023-02-24T02:20:39.234Z,30.10
2023-02-24T02:22:02.597Z,33.20
2023-02-24T02:23:17.316Z,30.55
2023-02-24T02:24:53.243Z,29.42
2023-02-24T02:26:03.278Z,32.72
2023-02-24T02:27:11.819Z,28.52
2023-02-24T02:28:20.154Z,32.75
2023-02-24T02:29:15.855Z,31.10
2023-02-24T02:30:21.342Z,31.85
2023-02-24T02:31:29.213Z,29.17
2023-02-24T02:32:34.816Z,30.85
2023-02-24T02:33:49.864Z,32.03
2023-02-24T02:34:50.502Z,29.10
2023-02-24T02:35:59.600Z,29.55
2023-02-24T02:36:56.351Z,32.33
2023-02-24T02:37:52.878Z,32.22
2023-02-24T02:38:52.190Z,32.75
2023-02-24T02:39:49.867Z,32.90
2023-02-24T02:40:41.240Z,30.42
2023-02-24T02:41:31.514Z,32.78
2023-02-24T02:42:41.183Z,31.10
2023-02-24T02:43:38.484Z,32.05
2023-02-24T02:44:40.302Z,33.38
2023-02-24T02:45:35.932Z,30.77
2023-02-24T02:46:37.609Z,32.95
2023-02-24T02:47:35.270Z,30.12
2023-02-24T02:48:48.911Z,30.77
2023-02-24T02:49:45.733Z,33.28
2023-02-24T02:50:43.677Z,30.50
2023-02-24T02:51:33.658Z,32.15
2023-02-24T02:52:30.270Z,34.67
2023-02-24T02:53:27.049Z,33.10
2023-02-24T02:54:19.452Z,32.30
2023-02-24T02:55:14.798Z,29.12
2023-02-24T02:56:08.810Z,34.75
2023-02-24T02:57:06.428Z,34.88
2023-02-24T02:57:55.416Z,32.13
2023-02-24T02:58:47.098Z,31.25
2023-02-24T02:59:36.959Z,30.70
2023-02-24T03:00:29.648Z,33.25
2023-02-24T03:01:18.822Z,31.60
2023-02-24T03:02:13.559Z,32.22
2023-02-24T03:03:12.856Z,37.65
2023-02-24T03:04:04.951Z,31.95
2023-02-24T03:04:53.587Z,27.83
2023-02-24T03:05:47.238Z,30.92
2023-02-24T03:06:39.588Z,35.70
2023-02-24T03:07:31.461Z,34.97
2023-02-24T03:08:25.920Z,33.72
2023-02-24T03:09:26.333Z,32.58
2023-02-24T03:10:21.199Z,33.80
2023-02-24T03:11:11.566Z,31.83
2023-02-24T03:12:04.837Z,33.75
2023-02-24T03:12:54.417Z,33.72
2023-02-24T03:13:43.457Z,33.75
2023-02-24T03:14:37.768Z,33.65
2023-02-24T03:15:27.330Z,32.63
2023-02-24T03:16:15.054Z,30.27
2023-02-24T03:17:04.791Z,31.27
2023-02-24T03:17:55.934Z,31.97
2023-02-24T03:18:53.998Z,32.28
2023-02-24T03:19:42.009Z,31.37
2023-02-24T03:20:33.889Z,34.03
2023-02-24T03:21:38.176Z,30.95
2023-02-24T03:22:34.786Z,34.40
2023-02-24T03:23:27.072Z,32.97
2023-02-24T03:24:15.774Z,34.00
2023-02-24T03:25:05.340Z,35.25
2023-02-24T03:25:58.897Z,36.08
2023-02-24T03:26:55.620Z,30.70
2023-02-24T03:28:29.699Z,35.22
2023-02-24T03:29:24.304Z,35.58
2023-02-24T03:30:35.930Z,35.20
2023-02-24T03:31:33.353Z,33.17
2023-02-24T03:32:33.943Z,35.67
2023-02-24T03:33:30.028Z,33.78
2023-02-24T03:34:25.280Z,34.63
2023-02-24T03:35:18.169Z,33.40
2023-02-24T03:36:05.957Z,33.38
2023-02-24T03:36:54.621Z,33.95
2023-02-24T03:37:41.539Z,33.35
2023-02-24T03:38:30.769Z,32.08
2023-02-24T03:39:17.766Z,32.72
2023-02-24T03:40:11.743Z,34.38
2023-02-24T03:40:59.390Z,36.00
2023-02-24T03:41:56.459Z,30.98
2023-02-24T03:42:58.689Z,35.30
2023-02-24T03:43:47.350Z,33.20
2023-02-24T03:44:34.451Z,36.65
2023-02-24T03:45:23.330Z,34.53
2023-02-24T03:46:10.311Z,33.75
2023-02-24T03:46:57.241Z,34.20
2023-02-24T03:47:47.657Z,39.58
2023-02-24T03:48:35.230Z,32.78
2023-02-24T03:49:25.552Z,34.30
2023-02-24T03:50:19.045Z,31.98
2023-02-24T03:51:05.991Z,31.48
2023-02-24T03:52:14.369Z,34.90
2023-02-24T03:53:31.245Z,37.45
2023-02-24T03:54:43.940Z,33.55
2023-02-24T03:55:58.933Z,33.38
2023-02-24T03:56:57.057Z,36.05
2023-02-24T03:57:55.431Z,31.80
2023-02-24T03:58:52.407Z,31.02
2023-02-24T03:59:45.449Z,36.38
2023-02-24T04:00:44.910Z,34.50
2023-02-24T04:01:39.706Z,33.80
2023-02-24T04:02:30.745Z,34.40
2023-02-24T04:03:25.924Z,34.03
2023-02-24T04:04:40.214Z,35.00
2023-02-24T04:05:29.518Z,30.88
2023-02-24T04:06:26.094Z,36.05
2023-02-24T04:07:31.171Z,32.63
2023-02-24T04:08:20.429Z,31.20
2023-02-24T04:09:20.394Z,35.42
2023-02-24T04:10:10.436Z,33.42
2023-02-24T04:11:13.389Z,36.85
2023-02-24T04:12:22.342Z,37.70
2023-02-24T04:13:23.010Z,34.50
2023-02-24T04:14:18.865Z,32.30
2023-02-24T04:15:16.827Z,33.00
2023-02-24T04:16:18.557Z,39.40
2023-02-24T04:17:14.347Z,32.90
2023-02-24T04:18:04.935Z,35.55
2023-02-24T04:18:52.478Z,36.33
2023-02-24T04:19:40.778Z,32.78
2023-02-24T04:20:31.239Z,31.20
2023-02-24T04:21:20.446Z,32.90
2023-02-24T04:22:10.721Z,35.17
2023-02-24T04:23:02.605Z,37.40
2023-02-24T04:23:50.050Z,34.95
2023-02-24T04:24:38.329Z,40.42
2023-02-24T04:25:26.120Z,36.85
2023-02-24T04:26:14.518Z,37.45
2023-02-24T04:27:02.518Z,34.92
2023-02-24T04:27:49.466Z,33.17
2023-02-24T04:28:36.508Z,37.58
2023-02-24T04:29:24.274Z,37.42
2023-02-24T04:30:12.529Z,36.08
2023-02-24T04:31:06.218Z,36.85
2023-02-24T04:32:01.752Z,41.15
2023-02-24T04:32:49.828Z,35.10
2023-02-24T04:33:39.725Z,35.85
2023-02-24T04:34:29.752Z,37.90
2023-02-24T04:35:20.706Z,35.80
2023-02-24T04:36:09.292Z,42.62
2023-02-24T04:36:56.173Z,37.58
2023-02-24T04:37:45.906Z,39.10
2023-02-24T04:38:33.027Z,34.63
2023-02-24T04:39:21.067Z,38.38
2023-02-24T04:40:11.827Z,39.22
2023-02-24T04:40:58.729Z,39.70
2023-02-24T04:41:49.518Z,42.62
2023-02-24T04:42:41.167Z,36.85
2023-02-24T04:43:29.708Z,39.13
2023-02-24T04:44:21.241Z,41.60
2023-02-24T04:45:13.115Z,37.72
2023-02-24T04:45:59.987Z,41.05
2023-02-24T04:46:47.925Z,37.05
2023-02-24T04:47:37.440Z,38.40
2023-02-24T04:48:24.325Z,39.78
2023-02-24T04:49:11.888Z,37.13
2023-02-24T04:49:58.766Z,40.45
2023-02-24T04:50:45.928Z,40.40
2023-02-24T04:51:34.199Z,39.15
2023-02-24T04:52:21.398Z,39.72
2023-02-24T04:53:13.573Z,37.67
2023-02-24T04:54:00.469Z,38.42
2023-02-24T04:54:48.302Z,39.00
2023-02-24T04:55:43.973Z,39.05
2023-02-24T04:56:30.898Z,39.63
2023-02-24T04:57:17.791Z,38.50
2023-02-24T04:58:04.716Z,37.38
2023-02-24T04:58:51.600Z,39.20
2023-02-24T04:59:38.423Z,41.58
2023-02-24T05:00:27.000Z,36.67
2023-02-24T05:01:13.891Z,38.97
2023-02-24T05:02:01.857Z,38.90
2023-02-24T05:02:52.391Z,35.22
2023-02-24T05:03:43.514Z,42.00
2023-02-24T05:04:31.744Z,37.58
2023-02-24T05:05:28.893Z,40.33
2023-02-24T05:06:17.924Z,39.38
2023-02-24T05:07:05.138Z,40.33
2023-02-24T05:07:53.530Z,40.67
2023-02-24T05:08:40.708Z,39.63
2023-02-24T05:09:30.351Z,40.95
2023-02-24T05:10:18.775Z,36.80
2023-02-24T05:11:05.832Z,37.08
2023-02-24T05:11:53.011Z,38.33
2023-02-24T05:12:40.213Z,36.67
2023-02-24T05:13:29.020Z,37.00
2023-02-24T05:14:18.350Z,40.60
2023-02-24T05:15:06.521Z,40.22
2023-02-24T05:15:54.871Z,38.85
2023-02-24T05:16:46.877Z,41.03
2023-02-24T05:17:33.917Z,41.47
2023-02-24T05:18:21.097Z,39.72
2023-02-24T05:19:26.493Z,40.60
2023-02-24T05:20:32.227Z,40.08
2023-02-24T05:21:37.525Z,36.90
2023-02-24T05:22:24.483Z,41.30
2023-02-24T05:23:11.555Z,44.10
2023-02-24T05:23:59.580Z,38.28
2023-02-24T05:24:48.223Z,39.33
2023-02-24T05:25:37.891Z,40.58
2023-02-24T05:26:25.870Z,41.60
2023-02-24T05:27:12.775Z,36.63
2023-02-24T05:27:59.633Z,38.90
2023-02-24T05:28:52.462Z,40.47
2023-02-24T05:29:40.644Z,40.65
2023-02-24T05:30:27.654Z,42.22
2023-02-24T05:31:17.337Z,39.33
2023-02-24T05:32:05.827Z,39.63
2023-02-24T05:32:54.497Z,43.25
2023-02-24T05:33:43.353Z,41.05
2023-02-24T05:34:31.654Z,43.75
2023-02-24T05:35:19.712Z,41.47
2023-02-24T05:36:09.584Z,42.83
2023-02-24T05:36:58.384Z,40.47
2023-02-24T05:37:45.264Z,37.60
2023-02-24T05:38:32.644Z,38.58
2023-02-24T05:39:20.641Z,41.75
2023-02-24T05:40:10.429Z,45.78
2023-02-24T05:41:08.653Z,41.85
2023-02-24T05:41:57.446Z,42.03
2023-02-24T05:42:45.482Z,42.58
2023-02-24T05:43:32.460Z,45.55
2023-02-24T05:44:23.072Z,40.35
2023-02-24T05:46:05.006Z,42.47
2023-02-24T05:47:03.095Z,41.15
2023-02-24T05:47:50.198Z,41.92
2023-02-24T05:48:37.271Z,41.10
2023-02-24T05:49:29.330Z,42.85
2023-02-24T05:50:17.427Z,38.83
2023-02-24T05:51:08.451Z,39.30
2023-02-24T05:52:01.089Z,40.45
2023-02-24T05:52:48.703Z,40.12
2023-02-24T05:53:36.427Z,41.80
2023-02-24T05:54:23.591Z,40.67
2023-02-24T05:55:14.200Z,39.17
2023-02-24T05:56:48.622Z,37.90
2023-02-24T05:57:38.359Z,39.35
2023-02-24T05:58:27.058Z,39.70
2023-02-24T05:59:18.336Z,41.15
2023-02-24T06:00:13.022Z,41.67
2023-02-24T06:01:07.017Z,39.83
2023-02-24T06:01:54.051Z,41.50
2023-02-24T06:02:47.215Z,40.95
2023-02-24T06:03:35.826Z,45.95
2023-02-24T06:04:39.537Z,39.88
2023-02-24T06:05:26.719Z,40.58
2023-02-24T06:06:15.334Z,43.00
2023-02-24T06:07:03.978Z,40.70
2023-02-24T06:07:51.270Z,41.58
2023-02-24T06:08:50.278Z,43.90
2023-02-24T06:09:40.360Z,39.30
2023-02-24T06:10:27.861Z,40.88
2023-02-24T06:11:19.003Z,41.13
2023-02-24T06:12:06.541Z,40.08
2023-02-24T06:12:55.118Z,42.38
2023-02-24T06:13:47.786Z,41.75
2023-02-24T06:14:34.681Z,44.08
2023-02-24T06:15:21.600Z,47.85
2023-02-24T06:16:08.804Z,45.67
2023-02-24T06:16:55.715Z,41.20
2023-02-24T06:17:43.820Z,38.45
2023-02-24T06:18:30.709Z,41.90
2023-02-24T06:19:17.716Z,40.58
2023-02-24T06:20:15.841Z,40.28
2023-02-24T06:21:03.727Z,42.70
2023-02-24T06:21:52.888Z,42.95
2023-02-24T06:22:42.649Z,42.47
2023-02-24T06:23:29.622Z,40.78
2023-02-24T06:24:18.252Z,40.45
2023-02-24T06:25:05.556Z,39.55
2023-02-24T06:25:53.517Z,40.67
2023-02-24T06:26:43.760Z,43.60
2023-02-24T06:27:32.706Z,40.47
2023-02-24T06:28:20.239Z,40.15
2023-02-24T06:29:08.011Z,44.33
2023-02-24T06:29:55.454Z,40.95
2023-02-24T06:30:42.377Z,43.92
2023-02-24T06:31:29.303Z,39.45
2023-02-24T06:32:17.689Z,40.33
2023-02-24T06:33:06.146Z,42.78
2023-02-24T06:33:56.391Z,39.75
2023-02-24T06:34:43.518Z,38.97
2023-02-24T06:35:30.435Z,40.30
2023-02-24T06:36:17.395Z,42.25
2023-02-24T06:37:05.839Z,45.12
2023-02-24T06:37:55.988Z,42.65
2023-02-24T06:38:43.342Z,41.08
2023-02-24T06:39:33.454Z,42.83
2023-02-24T06:40:21.542Z,41.97
2023-02-24T06:41:11.706Z,42.20
2023-02-24T06:42:04.045Z,46.85
2023-02-24T06:42:55.483Z,40.47
2023-02-24T06:43:46.845Z,44.40
2023-02-24T06:44:35.172Z,44.35
2023-02-24T06:45:23.389Z,41.80
2023-02-24T06:46:12.383Z,44.33
2023-02-24T06:46:59.463Z,45.03
2023-02-24T06:47:49.345Z,42.38
2023-02-24T06:48:36.942Z,45.53
2023-02-24T06:49:25.237Z,42.83
2023-02-24T06:50:12.732Z,40.75
2023-02-24T06:51:05.282Z,38.83
2023-02-24T06:51:52.529Z,38.88
2023-02-24T06:52:40.878Z,40.60
2023-02-24T06:53:27.774Z,38.83
2023-02-24T06:54:15.954Z,46.03
2023-02-24T06:55:27.330Z,42.97
2023-02-24T06:56:18.222Z,39.55
2023-02-24T06:57:05.107Z,40.83
2023-02-24T06:57:57.371Z,44.10
2023-02-24T06:58:45.491Z,44.88
2023-02-24T06:59:34.462Z,42.67
2023-02-24T07:00:25.415Z,42.65
2023-02-24T07:01:18.999Z,40.60
2023-02-24T07:02:08.275Z,40.67
2023-02-24T07:02:56.965Z,43.25
2023-02-24T07:04:02.927Z,43.17
2023-02-24T07:04:49.832Z,39.45
2023-02-24T07:05:36.729Z,41.22
2023-02-24T07:06:24.291Z,41.90
2023-02-24T07:07:14.575Z,44.97
2023-02-24T07:08:01.604Z,42.50
2023-02-24T07:08:48.654Z,38.85
2023-02-24T07:09:35.734Z,43.97
2023-02-24T07:10:22.611Z,41.08
2023-02-24T07:11:09.786Z,42.35
2023-02-24T07:11:57.161Z,40.38
2023-02-24T07:12:44.041Z,41.42
2023-02-24T07:13:31.087Z,40.05
2023-02-24T07:14:24.262Z,41.78
2023-02-24T07:15:13.957Z,41.83
2023-02-24T07:16:07.074Z,43.42
2023-02-24T07:16:55.018Z,42.75
2023-02-24T07:17:43.399Z,41.20
2023-02-24T07:18:31.115Z,42.42
2023-02-24T07:19:18.022Z,39.05
2023-02-24T07:20:12.410Z,43.63
2023-02-24T07:21:05.326Z,44.40
2023-02-24T07:22:00.232Z,42.03
2023-02-24T07:22:48.358Z,40.67
2023-02-24T07:23:35.327Z,44.03
2023-02-24T07:24:25.416Z,40.47
2023-02-24T07:25:30.644Z,38.38
2023-02-24T07:26:19.796Z,39.78
2023-02-24T07:27:09.640Z,40.92
2023-02-24T07:27:56.615Z,42.15
2023-02-24T07:28:44.534Z,42.08
2023-02-24T07:29:32.660Z,40.45
2023-02-24T07:30:20.178Z,43.53
2023-02-24T07:31:17.390Z,41.78
2023-02-24T07:32:07.161Z,43.08
2023-02-24T07:32:55.710Z,44.38
2023-02-24T07:33:45.435Z,38.25
2023-02-24T07:34:34.086Z,42.00
2023-02-24T07:35:21.621Z,40.85
2023-02-24T07:36:08.870Z,40.83
2023-02-24T07:36:56.635Z,40.38
2023-02-24T07:37:43.551Z,42.42
2023-02-24T07:38:30.660Z,41.55
2023-02-24T07:39:19.655Z,40.03
2023-02-24T07:40:08.289Z,42.67
2023-02-24T07:40:58.450Z,41.67
2023-02-24T07:41:46.730Z,38.95
2023-02-24T07:42:35.597Z,40.97
2023-02-24T07:43:22.503Z,44.20
2023-02-24T07:44:10.850Z,42.42
2023-02-24T07:44:59.854Z,38.00
2023-02-24T07:45:47.633Z,41.88
2023-02-24T07:46:34.598Z,43.38
2023-02-24T07:47:23.357Z,40.75
2023-02-24T07:48:12.688Z,44.30
2023-02-24T07:49:00.188Z,40.65
2023-02-24T07:49:47.194Z,42.85
2023-02-24T07:50:35.245Z,37.22
2023-02-24T07:51:24.403Z,42.60
2023-02-24T07:52:11.855Z,39.97
2023-02-24T07:52:59.951Z,41.30
2023-02-24T07:53:56.889Z,42.83
2023-02-24T07:54:45.304Z,41.47
2023-02-24T07:55:36.223Z,41.47
2023-02-24T07:56:27.271Z,40.63
2023-02-24T07:57:14.622Z,40.15
2023-02-24T07:58:03.116Z,41.42
2023-02-24T07:58:57.954Z,40.72
2023-02-24T07:59:45.472Z,41.58
2023-02-24T08:00:50.089Z,41.20
2023-02-24T08:01:41.077Z,41.78
2023-02-24T08:02:29.454Z,41.15
2023-02-24T08:03:16.528Z,40.00
2023-02-24T08:04:03.450Z,40.92
2023-02-24T08:04:51.754Z,40.95
2023-02-24T08:05:38.916Z,39.42
2023-02-24T08:06:38.032Z,45.08
2023-02-24T08:07:25.574Z,44.25
2023-02-24T08:08:13.596Z,45.17
2023-02-24T08:09:01.508Z,43.80
2023-02-24T08:10:08.569Z,38.35
2023-02-24T08:11:04.214Z,42.33
2023-02-24T08:11:57.650Z,40.40
2023-02-24T08:12:44.684Z,40.03
2023-02-24T08:13:37.614Z,48.00
2023-02-24T08:14:26.671Z,43.25
2023-02-24T08:15:24.429Z,45.22
2023-02-24T08:16:11.473Z,43.45
2023-02-24T08:16:59.734Z,40.20
2023-02-24T08:17:47.740Z,41.50
2023-02-24T08:18:37.606Z,39.80
2023-02-24T08:19:24.957Z,44.22
2023-02-24T08:20:15.346Z,39.03
2023-02-24T08:21:04.967Z,42.03
2023-02-24T08:21:53.585Z,41.72
2023-02-24T08:22:48.832Z,39.88
2023-02-24T08:23:44.797Z,42.17
2023-02-24T08:24:35.952Z,40.97
2023-02-24T08:25:35.847Z,43.15
2023-02-24T08:26:30.929Z,43.17
2023-02-24T08:27:22.597Z,41.42
2023-02-24T08:28:11.904Z,39.33
2023-02-24T08:28:59.009Z,44.85
2023-02-24T08:30:01.624Z,44.60
2023-02-24T08:30:48.686Z,38.05
2023-02-24T08:31:35.990Z,41.50
2023-02-24T08:32:24.504Z,38.28
2023-02-24T08:33:17.223Z,38.03
2023-02-24T08:34:04.313Z,42.25
2023-02-24T08:34:56.908Z,38.83
2023-02-24T08:35:47.157Z,40.72
2023-02-24T08:36:34.134Z,41.75
2023-02-24T08:37:21.162Z,41.63
2023-02-24T08:38:14.659Z,40.70
2023-02-24T08:39:01.728Z,42.53
2023-02-24T08:39:54.211Z,44.83
2023-02-24T08:40:50.762Z,38.45
2023-02-24T08:41:51.383Z,39.70
2023-02-24T08:42:38.327Z,40.17
2023-02-24T08:43:38.508Z,41.70
2023-02-24T08:44:29.430Z,41.95
2023-02-24T08:45:16.361Z,41.37
2023-02-24T08:46:18.778Z,39.28
2023-02-24T08:47:07.703Z,41.08
2023-02-24T08:48:00.797Z,36.83
2023-02-24T08:48:56.231Z,39.83
2023-02-24T08:49:45.603Z,40.10
2023-02-24T08:50:34.024Z,41.85
2023-02-24T08:51:29.142Z,39.83
2023-02-24T08:52:16.214Z,42.42
2023-02-24T08:53:03.143Z,39.17
2023-02-24T08:53:58.271Z,40.20
2023-02-24T08:54:49.383Z,36.88
2023-02-24T08:55:40.129Z,38.08
2023-02-24T08:56:29.897Z,42.92
2023-02-24T08:57:18.433Z,43.08
2023-02-24T08:58:11.314Z,41.03
2023-02-24T08:59:05.953Z,41.05
2023-02-24T08:59:59.954Z,40.00
2023-02-24T09:00:50.376Z,42.17
2023-02-24T09:01:39.884Z,41.50
2023-02-24T09:02:29.762Z,40.05
2023-02-24T09:03:28.228Z,42.80
2023-02-24T09:04:19.857Z,41.15
2023-02-24T09:05:14.323Z,43.72
2023-02-24T09:06:04.792Z,40.58
2023-02-24T09:07:10.812Z,41.17
2023-02-24T09:07:58.407Z,41.13
2023-02-24T09:08:46.682Z,42.22
2023-02-24T09:09:37.375Z,40.80
2023-02-24T09:11:14.164Z,42.35
2023-02-24T09:12:02.258Z,42.95
2023-02-24T09:12:49.504Z,45.85
2023-02-24T09:13:51.871Z,44.08
2023-02-24T09:14:38.943Z,41.50
2023-02-24T09:15:25.939Z,40.10
2023-02-24T09:16:16.728Z,43.70
2023-02-24T09:17:06.823Z,43.05
2023-02-24T09:18:07.434Z,41.13
2023-02-24T09:19:32.635Z,43.03
2023-02-24T09:20:43.166Z,43.22
2023-02-24T09:21:48.503Z,37.88
2023-02-24T09:22:54.213Z,39.72
2023-02-24T09:23:46.244Z,43.90
2023-02-24T09:24:33.336Z,40.85
2023-02-24T09:25:24.363Z,40.30
2023-02-24T09:26:11.432Z,40.58
2023-02-24T09:27:01.274Z,39.92
2023-02-24T09:27:52.561Z,38.92
2023-02-24T09:28:48.894Z,40.38
2023-02-24T09:29:35.901Z,43.42
2023-02-24T09:30:38.463Z,39.42
2023-02-24T09:31:42.820Z,44.30
2023-02-24T09:32:29.996Z,41.37
2023-02-24T09:33:19.059Z,38.33
2023-02-24T09:34:10.648Z,43.80
2023-02-24T09:34:57.643Z,39.50
2023-02-24T09:36:13.226Z,39.45
2023-02-24T09:37:06.224Z,39.25
2023-02-24T09:37:57.112Z,43.00
2023-02-24T09:39:07.670Z,42.05
2023-02-24T09:39:58.031Z,40.03
2023-02-24T09:40:50.346Z,37.42
2023-02-24T09:41:54.308Z,40.08
2023-02-24T09:42:47.862Z,38.83
2023-02-24T09:43:44.400Z,39.38
2023-02-24T09:44:44.518Z,39.75
2023-02-24T09:45:34.544Z,38.92
2023-02-24T09:46:21.589Z,36.67
2023-02-24T09:47:40.014Z,36.45
2023-02-24T09:48:44.017Z,41.13
2023-02-24T09:49:40.261Z,44.53
2023-02-24T09:51:03.144Z,42.33
2023-02-24T09:52:00.858Z,38.60
2023-02-24T09:52:52.158Z,38.33
2023-02-24T09:53:42.657Z,39.33
2023-02-24T09:54:32.355Z,38.45
2023-02-24T09:55:46.323Z,41.90
2023-02-24T09:56:42.742Z,41.25
2023-02-24T09:57:37.643Z,38.88
2023-02-24T09:58:48.137Z,41.90
2023-02-24T09:59:39.556Z,40.30
2023-02-24T10:00:33.690Z,40.08
2023-02-24T10:01:48.439Z,38.78
2023-02-24T10:02:35.318Z,38.85
2023-02-24T10:03:46.443Z,38.40
2023-02-24T10:04:54.205Z,36.08
2023-02-24T10:06:12.488Z,35.50
2023-02-24T10:06:59.757Z,38.25
2023-02-24T10:07:46.939Z,44.20
2023-02-24T10:08:38.485Z,39.15
2023-02-24T10:09:44.855Z,34.75
2023-02-24T10:10:36.425Z,35.35
2023-02-24T10:11:35.833Z,35.90
2023-02-24T10:12:28.867Z,39.67
2023-02-24T10:13:30.652Z,35.63
2023-02-24T10:14:19.788Z,36.38
2023-02-24T10:15:32.496Z,34.53
2023-02-24T10:16:25.794Z,34.92
2023-02-24T10:17:24.488Z,34.53
2023-02-24T10:18:28.265Z,36.33
2023-02-24T10:19:29.582Z,36.17
2023-02-24T10:20:39.949Z,35.92
2023-02-24T10:21:49.739Z,35.92
2023-02-24T10:22:54.514Z,37.30
2023-02-24T10:23:59.755Z,37.70
2023-02-24T10:24:49.945Z,35.95
2023-02-24T10:25:54.321Z,36.90
2023-02-24T10:27:08.401Z,33.65
2023-02-24T10:28:04.614Z,31.15
2023-02-24T10:28:59.830Z,33.30
2023-02-24T10:29:55.805Z,34.22
2023-02-24T10:30:47.441Z,35.80
2023-02-24T10:31:43.234Z,33.33
2023-02-24T10:32:43.560Z,30.33
2023-02-24T10:33:45.519Z,32.63
2023-02-24T10:34:33.271Z,34.00
2023-02-24T10:35:26.194Z,34.83
2023-02-24T10:36:17.464Z,32.20
2023-02-24T10:37:28.786Z,32.17
2023-02-24T10:38:16.339Z,33.90
2023-02-24T10:39:08.710Z,32.65
2023-02-24T10:40:00.908Z,34.05
2023-02-24T10:40:56.903Z,38.17
2023-02-24T10:41:57.832Z,33.20
2023-02-24T10:42:48.172Z,36.63
2023-02-24T10:43:47.569Z,32.55
2023-02-24T10:44:37.288Z,32.17
2023-02-24T10:45:26.526Z,35.60
2023-02-24T10:46:40.235Z,32.13
2023-02-24T10:47:31.536Z,33.45
2023-02-24T10:48:40.831Z,33.70
2023-02-24T10:49:30.880Z,32.97
2023-02-24T10:50:54.866Z,33.33
2023-02-24T10:51:44.146Z,33.08
2023-02-24T10:52:50.783Z,34.60
2023-02-24T10:53:38.150Z,31.05
2023-02-24T10:55:07.067Z,32.83
2023-02-24T10:56:15.386Z,30.73
2023-02-24T10:57:18.413Z,34.88
2023-02-24T10:58:06.673Z,33.03
2023-02-24T10:59:25.661Z,31.85
2023-02-24T11:00:33.413Z,30.80
2023-02-24T11:01:41.076Z,33.60
2023-02-24T11:02:33.058Z,33.13
2023-02-24T11:03:41.382Z,31.37
2023-02-24T11:04:57.195Z,34.47
2023-02-24T11:06:17.848Z,35.30
2023-02-24T11:07:24.790Z,33.08
2023-02-24T11:08:26.356Z,31.45
2023-02-24T11:09:27.571Z,32.35
2023-02-24T11:10:42.317Z,29.42
2023-02-24T11:11:54.641Z,31.20
2023-02-24T11:13:09.943Z,29.08
2023-02-24T11:14:17.823Z,27.23
2023-02-24T11:15:26.320Z,25.55
2023-02-24T11:16:33.881Z,24.65
2023-02-24T11:17:27.413Z,27.20
2023-02-24T11:18:18.317Z,26.30
2023-02-24T11:19:07.093Z,26.48
2023-02-24T11:20:00.550Z,24.63
2023-02-24T11:20:53.432Z,25.65
2023-02-24T11:21:41.907Z,24.60
2023-02-24T11:22:35.791Z,25.83
2023-02-24T11:23:29.479Z,28.67
2023-02-24T11:24:19.239Z,26.52